Time;durP1;ratioP1;P1;durP2;ratioP2;P2;SDS_P1;SDS_P2;PMS_P1;PMS_P2;Temp;Humidity;BMP_temperature;BMP_pressure;BME280_temperature;BME280_humidity;BME280_pressure;Samples;Min_cycle;Max_cycle;Signal;HPM_P1;HPM_P2
2021/11/02 00:00:58;;;;;;;2.53;2.28;;;;;;;11.24;72.55;99376.25;5012929;28;20033;-43
2021/11/02 00:03:23;;;;;;;3.22;2.53;;;;;;;11.25;72.57;99380.59;4994982;28;20026;-44
2021/11/02 00:05:48;;;;;;;2.80;2.42;;;;;;;11.23;72.12;99364.81;4995159;28;20084;-43
2021/11/02 00:08:14;;;;;;;4.28;2.97;;;;;;;11.23;72.31;99374.50;5002747;28;20075;-43
2021/11/02 00:10:40;;;;;;;3.15;2.72;;;;;;;11.23;72.12;99371.88;5014807;28;20034;-44
2021/11/02 00:13:06;;;;;;;3.03;2.60;;;;;;;11.21;72.27;99379.88;5015071;28;20474;-43
2021/11/02 00:15:33;;;;;;;2.90;2.60;;;;;;;11.22;72.34;99373.66;5011576;28;20063;-43
2021/11/02 00:18:03;;;;;;;2.50;2.30;;;;;;;11.22;72.11;99364.88;5008603;28;20034;-43
2021/11/02 00:20:28;;;;;;;3.83;2.53;;;;;;;11.21;72.50;99369.31;5003672;28;20018;-43
2021/11/02 00:22:55;;;;;;;2.65;2.45;;;;;;;11.22;72.22;99359.59;5014105;28;20509;-43
2021/11/02 00:25:22;;;;;;;2.50;2.30;;;;;;;11.22;72.21;99362.22;5014363;28;20559;-44
2021/11/02 00:27:48;;;;;;;2.90;2.60;;;;;;;11.20;72.16;99357.00;5004480;28;20085;-44
2021/11/02 00:30:14;;;;;;;2.83;2.47;;;;;;;11.21;72.68;99355.22;4994722;28;20076;-43
2021/11/02 00:32:40;;;;;;;4.95;2.83;;;;;;;11.21;72.50;99356.09;5000815;28;20473;-43
2021/11/02 00:35:07;;;;;;;3.70;2.38;;;;;;;11.20;72.42;99353.53;5001633;28;20654;-43
2021/11/02 00:37:32;;;;;;;2.80;2.60;;;;;;;11.20;72.50;99351.72;4985377;28;20037;-44
2021/11/02 00:39:58;;;;;;;2.80;2.60;;;;;;;11.19;72.17;99346.50;4994806;28;20030;-43
2021/11/02 00:42:37;;;;;;;2.28;2.08;;;;;;;11.20;72.07;99340.31;4995269;28;20030;-43
2021/11/02 00:45:07;;;;;;;3.17;2.35;;;;;;;11.19;72.18;99341.22;5013733;28;21371;-43
2021/11/02 00:47:33;;;;;;;3.20;2.90;;;;;;;11.19;72.28;99341.22;5005020;28;20054;-43
2021/11/02 00:49:59;;;;;;;2.30;2.17;;;;;;;11.18;72.50;99345.66;4995926;28;20054;-43
2021/11/02 00:52:24;;;;;;;2.53;2.22;;;;;;;11.18;72.54;99348.28;4994676;28;20018;-43
2021/11/02 00:54:49;;;;;;;2.92;2.58;;;;;;;11.19;72.24;99346.50;4997976;28;20034;-44
2021/11/02 00:57:15;;;;;;;2.47;2.25;;;;;;;11.18;72.15;99347.41;5014057;28;20026;-43
2021/11/02 00:59:41;;;;;;;2.58;2.38;;;;;;;11.18;72.28;99352.69;5008955;28;20497;-43
2021/11/02 01:02:08;;;;;;;3.33;3.03;;;;;;;11.16;72.29;99344.81;5011676;28;20371;-44
2021/11/02 01:04:33;;;;;;;2.92;2.70;;;;;;;11.15;72.47;99351.91;4995917;28;20026;-45
2021/11/02 01:06:59;;;;;;;3.53;2.45;;;;;;;11.16;72.25;99358.88;5008579;28;20449;-44
2021/11/02 01:09:24;;;;;;;2.50;2.30;;;;;;;11.16;72.45;99344.81;5010679;28;20014;-44
2021/11/02 01:11:49;;;;;;;3.83;2.88;;;;;;;11.14;72.24;99347.50;5011758;28;20033;-43
2021/11/02 01:14:15;;;;;;;2.47;2.28;;;;;;;11.15;72.59;99340.47;5000133;28;20038;-43
2021/11/02 01:16:40;;;;;;;2.50;2.30;;;;;;;11.14;72.44;99339.59;4994047;28;20065;-44
2021/11/02 01:19:05;;;;;;;3.38;2.60;;;;;;;11.13;72.14;99337.88;5011660;28;20065;-43
2021/11/02 01:21:31;;;;;;;3.08;2.50;;;;;;;11.14;72.47;99339.59;5011949;28;20030;-44
2021/11/02 01:23:57;;;;;;;3.08;2.60;;;;;;;11.13;72.57;99343.16;5013644;28;20030;-44
2021/11/02 01:26:22;;;;;;;2.95;2.63;;;;;;;11.14;72.33;99333.47;4998571;28;20521;-43
2021/11/02 01:28:48;;;;;;;2.63;2.38;;;;;;;11.13;72.03;99332.59;5009247;28;20057;-44
2021/11/02 01:31:13;;;;;;;3.85;2.40;;;;;;;11.13;72.46;99337.88;4994878;28;20033;-43
2021/11/02 01:33:40;;;;;;;2.58;2.38;;;;;;;11.12;72.35;99336.16;5008797;28;20085;-43
2021/11/02 01:36:05;;;;;;;2.80;2.60;;;;;;;11.12;72.25;99341.44;4999309;28;20026;-43
2021/11/02 01:38:31;;;;;;;3.03;2.25;;;;;;;11.11;72.18;99344.97;5002547;28;20072;-43
2021/11/02 01:40:56;;;;;;;3.45;2.38;;;;;;;11.12;72.15;99343.19;4992372;28;20419;-43
2021/11/02 01:43:22;;;;;;;2.80;2.47;;;;;;;11.11;72.14;99347.59;4994698;28;20030;-44
2021/11/02 01:45:49;;;;;;;3.55;2.35;;;;;;;11.11;72.54;99342.31;4993712;28;20062;-44
2021/11/02 01:48:17;;;;;;;2.63;2.42;;;;;;;11.11;72.27;99350.25;5013241;28;20029;-43
2021/11/02 01:50:44;;;;;;;4.47;2.05;;;;;;;11.10;72.12;99345.88;5013245;28;20052;-44
2021/11/02 01:53:09;;;;;;;2.42;2.22;;;;;;;11.10;72.14;99345.03;5002098;28;20085;-43
2021/11/02 01:55:35;;;;;;;3.03;2.67;;;;;;;11.08;72.42;99339.81;4993081;28;20022;-44
2021/11/02 01:58:00;;;;;;;3.33;3.03;;;;;;;11.08;72.27;99337.19;4993307;28;20714;-43
2021/11/02 02:00:27;;;;;;;2.83;2.55;;;;;;;11.10;72.44;99345.88;5008299;28;20026;-43
2021/11/02 02:03:14;;;;;;;2.53;2.33;;;;;;;11.08;72.42;99342.44;4993684;28;20449;-43
2021/11/02 02:05:49;;;;;;;3.05;2.72;;;;;;;11.08;72.10;99338.94;4994716;28;20438;-43
2021/11/02 02:08:48;;;;;;;3.08;2.78;;;;;;;11.07;72.18;99337.22;4986562;28;20045;-43
2021/11/02 02:11:30;;;;;;;3.38;2.90;;;;;;;11.06;72.17;99336.34;4981920;28;20049;-43
2021/11/02 02:14:01;;;;;;;;;;;;;;;11.04;72.37;99327.63;5002933;28;20030;-43
2021/11/02 02:16:34;;;;;;;3.10;2.80;;;;;;;11.03;72.15;99332.03;5012334;28;19916;-43
2021/11/02 02:19:19;;;;;;;3.15;2.85;;;;;;;11.03;72.22;99320.63;5011514;28;20029;-42
2021/11/02 02:22:22;;;;;;;3.05;2.75;;;;;;;11.04;72.20;99327.63;5011323;28;20049;-42
2021/11/02 02:24:56;;;;;;;3.38;2.90;;;;;;;11.03;72.24;99325.88;5010699;28;20435;-42
2021/11/02 02:27:58;;;;;;;3.30;3.00;;;;;;;11.03;72.07;99324.13;4997751;28;20022;-42
2021/11/02 02:30:23;;;;;;;3.15;2.88;;;;;;;11.03;72.47;99323.25;4997140;28;20030;-42
2021/11/02 02:32:52;;;;;;;3.70;3.38;;;;;;;11.02;72.30;99319.78;4996892;28;20036;-43
2021/11/02 02:35:22;;;;;;;3.50;3.10;;;;;;;11.02;72.29;99324.16;4991031;28;20026;-44
2021/11/02 02:37:48;;;;;;;3.53;3.13;;;;;;;11.02;72.31;99321.53;4998767;28;20121;-44
2021/11/02 02:40:14;;;;;;;3.30;3.03;;;;;;;11.01;72.48;99319.81;5011207;28;20029;-44
2021/11/02 02:42:41;;;;;;;4.78;3.08;;;;;;;11.03;72.16;99320.63;5004170;28;20539;-44
2021/11/02 02:45:08;;;;;;;3.50;2.95;;;;;;;11.02;72.34;99316.25;4997373;28;20402;-44
2021/11/02 02:47:35;;;;;;;3.17;2.88;;;;;;;11.01;72.24;99319.81;5006784;28;20017;-44
2021/11/02 02:50:02;;;;;;;2.90;2.70;;;;;;;11.01;72.45;99311.91;4992637;28;20057;-44
2021/11/02 02:52:29;;;;;;;4.43;2.70;;;;;;;11.02;72.08;99308.34;4998875;28;20056;-45
2021/11/02 02:54:54;;;;;;;2.70;2.50;;;;;;;11.01;72.27;99311.91;4996884;28;20040;-44
2021/11/02 02:57:22;;;;;;;3.20;2.90;;;;;;;11.02;72.26;99308.34;5008330;28;20025;-44
2021/11/02 02:59:49;;;;;;;3.83;3.10;;;;;;;11.01;72.24;99303.97;5010733;28;20109;-44
2021/11/02 03:02:17;;;;;;;3.42;3.13;;;;;;;11.01;72.33;99301.34;5000406;28;20037;-44
2021/11/02 03:04:45;;;;;;;3.47;2.80;;;;;;;11.01;72.43;99302.19;5006667;28;20029;-43
2021/11/02 03:07:10;;;;;;;2.90;2.70;;;;;;;10.99;72.38;99295.25;5016929;28;20572;-44
2021/11/02 03:09:35;;;;;;;2.47;2.28;;;;;;;11.00;72.15;99294.31;5003007;28;20037;-44
2021/11/02 03:12:02;;;;;;;2.95;2.65;;;;;;;11.00;72.21;99294.31;5004292;28;20025;-44
2021/11/02 03:15:12;;;;;;;3.17;2.90;;;;;;;10.99;72.41;99287.34;5006623;28;20429;-44
2021/11/02 03:17:31;;;;;;;2.83;2.63;;;;;;;10.97;72.19;99292.66;5010342;28;20042;-44
2021/11/02 03:45:05;;;;;;;3.85;2.92;;;;;;;10.95;72.33;99286.59;4990594;28;20457;-43
2021/11/02 03:55:58;;;;;;;2.80;2.60;;;;;;;10.91;72.10;99288.44;5010687;28;20044;-43
2021/11/02 03:58:31;;;;;;;2.50;2.30;;;;;;;10.92;72.34;99294.59;4997752;28;20425;-44
2021/11/02 04:28:06;;;;;;;2.80;2.20;;;;;;;10.87;72.54;99293.88;5008095;28;20038;-46
2021/11/02 04:42:23;;;;;;;2.63;2.42;;;;;;;10.86;72.25;99293.00;5004393;28;20037;-43
2021/11/02 05:59:46;;;;;;;3.50;3.05;;;;;;;10.72;72.07;99300.50;5012371;28;20117;-44
2021/11/02 06:05:08;;;;;;;4.28;2.65;;;;;;;10.70;72.30;99297.91;4997890;28;20549;-44
2021/11/02 06:29:27;;;;;;;3.33;2.65;;;;;;;10.68;72.26;99319.97;4992858;28;20449;-43
2021/11/02 06:32:20;;;;;;;2.92;2.72;;;;;;;10.65;72.05;99324.44;5002508;28;20040;-44
2021/11/02 06:37:40;;;;;;;3.25;3.00;;;;;;;10.65;72.21;99328.84;5008543;28;20037;-43
2021/11/02 06:45:36;;;;;;;3.10;2.80;;;;;;;10.64;72.21;99329.78;5008334;28;20514;-43
2021/11/02 07:16:36;;;;;;;3.65;3.35;;;;;;;10.58;72.13;99343.13;4997351;28;20039;-43
2021/11/02 07:19:06;;;;;;;3.28;2.95;;;;;;;10.57;72.11;99352.78;5008039;28;20029;-44
2021/11/02 07:21:47;;;;;;;3.17;2.87;;;;;;;10.57;71.89;99350.16;5010871;28;20041;-43
2021/11/02 07:24:27;;;;;;;2.80;2.60;;;;;;;10.57;72.08;99355.44;5001540;28;20273;-43
2021/11/02 08:47:32;;;;;;;3.58;3.28;;;;;;;10.47;72.19;99317.94;5005092;28;20387;-43
2021/11/02 08:49:58;;;;;;;4.20;3.22;;;;;;;10.47;72.10;99325.00;4994560;28;20018;-44
2021/11/02 08:52:23;;;;;;;3.88;3.05;;;;;;;10.48;72.24;99329.38;4994622;28;20030;-43
2021/11/02 08:54:52;;;;;;;3.65;3.35;;;;;;;10.49;71.96;99320.53;4977072;28;20165;-44
2021/11/02 08:57:19;;;;;;;3.40;3.10;;;;;;;10.49;72.19;99321.41;4997585;28;20025;-43
2021/11/02 08:59:45;;;;;;;4.45;4.05;;;;;;;10.49;71.99;99329.31;5013220;28;20490;-43
2021/11/02 09:02:12;;;;;;;4.15;2.97;;;;;;;10.50;72.08;99327.53;4997844;28;20101;-43
2021/11/02 09:04:45;;;;;;;3.47;3.17;;;;;;;10.51;72.00;99329.28;4992945;28;20045;-43
2021/11/02 09:07:18;;;;;;;3.40;3.10;;;;;;;10.49;72.06;99329.31;4993339;28;20108;-43
2021/11/02 09:09:48;;;;;;;3.33;3.03;;;;;;;10.51;72.11;99329.28;4992990;28;20032;-43
2021/11/02 09:12:15;;;;;;;3.38;3.03;;;;;;;10.50;71.97;99320.50;5010676;28;20030;-43
2021/11/02 09:14:43;;;;;;;4.40;2.95;;;;;;;10.51;72.18;99324.84;5011670;28;20101;-43
2021/11/02 09:17:09;;;;;;;3.83;3.28;;;;;;;10.54;71.67;99333.59;5013003;28;20498;-43
2021/11/02 09:19:35;;;;;;;4.28;2.90;;;;;;;10.54;71.91;99329.19;5013346;28;20040;-43
2021/11/02 09:22:10;;;;;;;3.58;3.20;;;;;;;10.54;71.91;99328.31;5006438;28;20639;-43
2021/11/02 09:24:36;;;;;;;4.00;3.13;;;;;;;10.56;72.03;99330.00;5006421;28;20108;-43
2021/11/02 09:27:03;;;;;;;5.22;3.25;;;;;;;10.58;71.84;99335.22;5006364;28;20061;-44
2021/11/02 09:29:28;;;;;;;3.83;3.50;;;;;;;10.58;71.82;99325.53;5013863;28;20033;-44
2021/11/02 09:31:57;;;;;;;3.78;3.03;;;;;;;10.58;71.96;99332.59;5009653;28;20032;-44
2021/11/02 09:34:23;;;;;;;3.42;3.13;;;;;;;10.59;71.96;99326.38;5007006;28;20095;-44
2021/11/02 09:37:14;;;;;;;5.32;3.50;;;;;;;10.60;71.87;99328.97;5007341;28;20498;-43
2021/11/02 09:39:41;;;;;;;3.38;3.08;;;;;;;10.60;72.14;99323.72;5013443;28;20029;-43
2021/11/02 09:42:44;;;;;;;3.20;2.88;;;;;;;10.60;71.87;99322.88;5012227;28;20030;-43
2021/11/02 09:46:07;;;;;;;4.32;3.17;;;;;;;10.61;71.72;99322.78;4999912;28;20033;-44
2021/11/02 09:48:42;;;;;;;3.28;2.97;;;;;;;10.62;71.85;99321.03;4984410;28;20034;-44
2021/11/02 09:51:32;;;;;;;3.88;3.30;;;;;;;10.61;72.04;99320.16;4996164;28;20038;-43
2021/11/02 09:54:05;;;;;;;3.40;2.97;;;;;;;10.60;72.02;99323.72;5008634;28;20033;-43
2021/11/02 09:57:03;;;;;;;3.40;3.10;;;;;;;10.61;71.99;99330.69;4993607;28;20022;-44
2021/11/02 09:59:52;;;;;;;3.47;2.72;;;;;;;10.62;71.81;99326.31;4995751;28;20030;-44
2021/11/02 10:02:29;;;;;;;6.15;3.33;;;;;;;10.62;72.03;99327.19;4993574;28;20109;-44
2021/11/02 10:05:29;;;;;;;4.28;3.30;;;;;;;10.61;71.72;99317.50;5009376;28;20030;-43
2021/11/02 10:08:15;;;;;;;4.03;2.88;;;;;;;10.62;71.91;99321.03;4969841;28;20042;-43
2021/11/02 10:10:56;;;;;;;3.10;2.80;;;;;;;10.63;71.62;99325.38;4998682;28;20018;-43
2021/11/02 10:13:38;;;;;;;3.25;2.95;;;;;;;10.62;71.95;99321.91;5010506;28;20030;-43
2021/11/02 10:16:16;;;;;;;3.58;2.92;;;;;;;10.64;71.83;99320.06;5007150;28;20052;-44
2021/11/02 10:19:19;;;;;;;4.07;2.85;;;;;;;10.65;71.55;99335.00;5008116;28;20397;-44
2021/11/02 10:22:25;;;;;;;2.80;2.60;;;;;;;10.65;71.61;99326.22;4996585;28;20375;-44
2021/11/02 10:25:04;;;;;;;2.78;2.53;;;;;;;10.67;71.71;99331.44;4983422;28;20042;-43
2021/11/02 10:28:07;;;;;;;3.00;2.80;;;;;;;10.67;71.69;99328.81;4994696;28;20111;-43
2021/11/02 10:30:44;;;;;;;3.30;2.72;;;;;;;10.66;71.50;99327.94;4992853;28;20648;-44
2021/11/02 10:33:20;;;;;;;3.22;2.60;;;;;;;10.68;71.81;99330.53;5009581;28;20470;-43
2021/11/02 10:35:59;;;;;;;2.70;2.45;;;;;;;10.67;71.65;99334.91;4993817;28;20060;-44
2021/11/02 10:38:27;;;;;;;2.67;2.47;;;;;;;10.68;71.68;99323.50;4993005;28;20058;-43
2021/11/02 10:40:58;;;;;;;3.72;2.65;;;;;;;10.69;71.95;99316.41;5010534;28;20026;-43
2021/11/02 10:43:50;;;;;;;3.03;2.83;;;;;;;10.70;71.48;99320.81;5002909;28;20033;-44
2021/11/02 10:46:15;;;;;;;2.53;2.33;;;;;;;10.69;71.68;99316.41;4992277;28;20560;-43
2021/11/02 10:48:48;;;;;;;2.53;2.30;;;;;;;10.70;71.76;99307.63;4992564;28;20030;-43
2021/11/02 10:51:37;;;;;;;2.70;2.50;;;;;;;10.71;71.68;99314.59;5000290;28;20018;-43
2021/11/02 10:54:05;;;;;;;2.95;2.70;;;;;;;10.71;71.86;99309.34;5009767;28;20512;-43
2021/11/02 10:56:49;;;;;;;3.58;2.72;;;;;;;10.72;71.85;99308.41;5011983;28;20025;-43
2021/11/02 10:59:16;;;;;;;5.13;2.50;;;;;;;10.73;71.79;99308.38;5011947;28;20033;-43
2021/11/02 11:01:42;;;;;;;3.97;2.60;;;;;;;10.75;71.84;99303.06;5009827;28;20030;-43
2021/11/02 11:04:09;;;;;;;2.75;2.55;;;;;;;10.76;71.46;99308.28;5011222;28;20022;-43
2021/11/02 11:06:38;;;;;;;2.60;2.40;;;;;;;10.76;71.62;99296.84;4998566;28;20026;-44
2021/11/02 11:09:03;;;;;;;2.75;2.55;;;;;;;10.76;71.59;99294.22;4992554;28;20025;-43
2021/11/02 11:11:31;;;;;;;3.00;2.70;;;;;;;10.78;71.30;99295.03;4992528;28;20030;-43
2021/11/02 11:14:04;;;;;;;3.78;2.80;;;;;;;10.79;71.50;99302.03;4992293;28;20054;-44
2021/11/02 11:16:31;;;;;;;3.88;2.70;;;;;;;10.80;71.58;99292.38;4990931;28;20045;-43
2021/11/02 11:19:10;;;;;;;2.67;2.47;;;;;;;10.79;71.65;99291.50;5011343;28;20072;-43
2021/11/02 11:21:37;;;;;;;2.70;2.50;;;;;;;10.80;71.70;99287.94;5010145;28;20030;-43
2021/11/02 11:24:18;;;;;;;2.58;2.30;;;;;;;10.81;71.22;99292.31;4999411;28;20025;-44
2021/11/02 11:26:54;;;;;;;3.22;2.55;;;;;;;10.82;71.47;99299.31;5010991;28;20037;-43
2021/11/02 11:29:20;;;;;;;2.65;2.45;;;;;;;10.82;71.29;99301.94;5010492;28;20049;-43
2021/11/02 11:31:48;;;;;;;2.70;2.13;;;;;;;10.84;71.59;99293.97;4998839;28;20464;-43
2021/11/02 11:34:15;;;;;;;2.90;2.17;;;;;;;10.84;71.35;99291.34;4992893;28;20026;-42
2021/11/02 11:36:47;;;;;;;2.47;2.25;;;;;;;10.85;71.25;99288.66;5000441;28;20085;-43
2021/11/02 11:39:20;;;;;;;2.70;2.50;;;;;;;10.85;71.56;99296.56;5009977;28;20029;-44
2021/11/02 11:41:51;;;;;;;3.35;2.47;;;;;;;10.87;71.18;99299.16;5011355;28;20070;-44
2021/11/02 11:44:20;;;;;;;2.42;2.22;;;;;;;10.86;71.31;99293.00;5008991;28;20022;-44
2021/11/02 11:46:47;;;;;;;2.67;2.47;;;;;;;10.85;71.22;99299.22;5010626;28;20401;-44
2021/11/02 11:49:23;;;;;;;2.75;2.42;;;;;;;10.86;71.43;99300.94;4994467;28;20080;-43
2021/11/02 11:51:59;;;;;;;2.33;2.13;;;;;;;10.86;71.37;99295.66;5004666;28;20542;-43
2021/11/02 11:54:47;;;;;;;2.60;2.40;;;;;;;10.87;71.09;99300.00;5009777;28;20072;-43
2021/11/02 11:57:33;;;;;;;2.55;2.35;;;;;;;10.86;71.08;99293.00;5010567;28;20038;-43
2021/11/02 12:00:05;;;;;;;2.08;1.98;;;;;;;10.86;71.07;99290.38;4998904;28;20026;-43
2021/11/02 12:02:32;;;;;;;2.38;2.17;;;;;;;10.84;71.32;99284.28;4998489;28;20039;-44
2021/11/02 12:05:00;;;;;;;2.45;2.28;;;;;;;10.86;71.47;99282.47;5000360;28;20426;-43
2021/11/02 12:07:51;;;;;;;2.47;2.28;;;;;;;10.86;71.27;99282.47;4990645;28;20077;-43
2021/11/02 12:10:21;;;;;;;2.58;2.38;;;;;;;10.85;71.13;99282.50;4993492;28;20478;-44
2021/11/02 12:12:49;;;;;;;2.65;2.45;;;;;;;10.84;71.52;99281.63;5011350;28;20053;-43
2021/11/02 12:15:15;;;;;;;2.35;2.15;;;;;;;10.85;71.44;99275.47;4993762;28;20026;-43
2021/11/02 12:17:42;;;;;;;2.53;2.05;;;;;;;10.86;71.45;99271.91;5022443;28;20037;-43
2021/11/02 12:20:11;;;;;;;2.42;2.00;;;;;;;10.86;71.43;99269.28;5003985;28;20439;-43
2021/11/02 12:22:49;;;;;;;2.45;2.25;;;;;;;10.87;71.39;99273.63;5011268;28;20060;-43
2021/11/02 12:25:18;;;;;;;2.30;2.15;;;;;;;10.88;71.39;99270.06;5000310;28;20413;-43
2021/11/02 12:27:44;;;;;;;2.28;2.08;;;;;;;10.87;71.13;99271.00;5010397;28;20084;-43
2021/11/02 12:30:11;;;;;;;2.20;2.00;;;;;;;10.86;71.09;99266.63;5010642;28;20026;-43
2021/11/02 12:32:39;;;;;;;2.58;2.38;;;;;;;10.88;71.42;99277.16;5010899;28;20105;-43
2021/11/02 12:35:36;;;;;;;2.38;2.17;;;;;;;10.89;71.44;99274.47;5008321;28;20502;-43
2021/11/02 12:38:03;;;;;;;3.05;2.20;;;;;;;10.88;71.22;99275.34;5012948;28;20049;-44
2021/11/02 12:40:35;;;;;;;2.55;2.38;;;;;;;10.88;71.15;99274.50;5013305;28;20021;-43
2021/11/02 12:43:00;;;;;;;;;;;;;;;10.88;70.98;99285.06;5013620;28;20445;-43
2021/11/02 12:45:28;;;;;;;2.27;2.10;;;;;;;10.85;71.24;99280.75;4994877;28;19909;-43
2021/11/02 12:47:59;;;;;;;2.95;2.38;;;;;;;10.85;71.10;99280.75;4977141;28;20279;-44
2021/11/02 12:50:27;;;;;;;2.60;2.40;;;;;;;10.87;71.37;99283.34;4993533;28;20022;-43
2021/11/02 12:52:56;;;;;;;2.80;2.20;;;;;;;10.86;71.32;99285.09;4995300;28;20088;-43
2021/11/02 12:55:24;;;;;;;2.38;2.05;;;;;;;10.87;71.30;99281.53;4994093;28;20042;-43
2021/11/02 12:57:54;;;;;;;2.28;2.08;;;;;;;10.88;71.16;99282.41;4994770;28;20045;-43
2021/11/02 13:00:26;;;;;;;2.20;2.00;;;;;;;10.87;71.14;99278.91;4992626;28;20033;-44
2021/11/02 13:02:58;;;;;;;2.70;2.50;;;;;;;10.88;71.19;99274.50;4994927;28;20057;-44
2021/11/02 13:05:25;;;;;;;2.55;2.28;;;;;;;10.88;71.10;99269.22;5005408;28;20022;-43
2021/11/02 13:08:09;;;;;;;2.70;2.50;;;;;;;10.88;70.74;99270.06;5011457;28;20026;-44
2021/11/02 13:10:39;;;;;;;2.67;2.28;;;;;;;10.87;71.21;99256.97;4992746;28;20065;-44
2021/11/02 13:13:16;;;;;;;2.97;2.67;;;;;;;10.88;71.34;99253.41;5014071;28;20033;-44
2021/11/02 13:15:54;;;;;;;2.53;2.33;;;;;;;10.88;71.49;99258.69;5009010;28;20026;-44
2021/11/02 13:18:33;;;;;;;2.00;1.80;;;;;;;10.90;71.28;99256.84;5007118;28;20080;-43
2021/11/02 13:21:19;;;;;;;3.03;2.10;;;;;;;10.90;71.42;99263.00;4998828;28;20038;-44
2021/11/02 13:23:47;;;;;;;2.70;2.50;;;;;;;10.91;71.25;99267.34;5009650;28;20034;-43
2021/11/02 13:26:17;;;;;;;2.35;2.13;;;;;;;10.93;71.12;99277.00;4999383;28;20390;-43
2021/11/02 13:28:43;;;;;;;2.28;2.17;;;;;;;10.93;71.14;99267.28;4998043;28;20531;-44
2021/11/02 13:31:24;;;;;;;2.58;2.38;;;;;;;10.94;71.11;99273.44;5004569;28;20022;-43
2021/11/02 13:34:01;;;;;;;2.13;1.98;;;;;;;10.94;71.19;99289.28;4995743;28;20026;-43
2021/11/02 13:36:27;;;;;;;2.55;1.80;;;;;;;10.94;71.16;99284.84;5012930;28;20034;-44
2021/11/02 13:39:21;;;;;;;2.17;2.08;;;;;;;10.97;70.91;99289.19;4999356;28;20036;-43
2021/11/02 13:41:49;;;;;;;2.85;1.95;;;;;;;10.94;70.99;99290.13;4971575;28;20057;-44
2021/11/02 13:44:15;;;;;;;2.38;2.17;;;;;;;10.95;71.31;99293.63;4990809;28;20402;-44
2021/11/02 13:47:02;;;;;;;2.17;2.08;;;;;;;10.94;71.16;99284.84;5008387;28;20038;-44
2021/11/02 13:49:27;;;;;;;2.17;1.98;;;;;;;10.95;71.13;99291.00;4996642;28;20030;-44
2021/11/02 13:51:52;;;;;;;2.40;2.05;;;;;;;10.94;70.97;99289.28;4992535;28;20054;-44
2021/11/02 13:54:19;;;;;;;2.55;2.33;;;;;;;10.95;71.11;99296.25;5022744;28;20026;-44
2021/11/02 13:56:46;;;;;;;2.33;2.13;;;;;;;10.94;71.18;99297.19;4995571;28;20049;-45
2021/11/02 13:59:12;;;;;;;1.98;1.88;;;;;;;10.95;70.95;99291.00;5006945;28;20042;-44
2021/11/02 14:01:45;;;;;;;2.42;2.22;;;;;;;10.96;71.14;99303.25;5000488;28;20048;-43
2021/11/02 14:04:22;;;;;;;2.08;1.90;;;;;;;10.95;70.93;99297.13;4991270;28;20029;-44
2021/11/02 14:06:54;;;;;;;2.10;1.90;;;;;;;10.95;70.95;99293.63;4997504;28;20375;-43
2021/11/02 14:09:27;;;;;;;2.10;1.90;;;;;;;10.95;70.92;99297.13;5008544;28;20033;-45
2021/11/02 14:11:53;;;;;;;2.20;2.05;;;;;;;10.94;71.00;99299.81;5002800;28;20420;-45
2021/11/02 14:14:29;;;;;;;1.88;1.77;;;;;;;10.95;70.98;99291.84;5010623;28;20036;-44
2021/11/02 14:16:56;;;;;;;2.15;1.95;;;;;;;10.94;71.08;99289.28;5011083;28;20025;-44
2021/11/02 14:19:33;;;;;;;1.85;1.75;;;;;;;10.95;70.96;99296.25;5004116;28;20538;-44
2021/11/02 14:21:58;;;;;;;2.25;2.05;;;;;;;10.93;70.86;99290.19;5006293;28;20053;-44
2021/11/02 14:24:54;;;;;;;2.53;1.73;;;;;;;10.95;70.86;99296.25;5008611;28;20056;-44
2021/11/02 14:27:21;;;;;;;2.22;2.10;;;;;;;10.94;70.76;99291.91;4966919;28;20494;-44
2021/11/02 14:29:53;;;;;;;2.75;1.92;;;;;;;10.93;71.25;99293.66;4994099;28;20491;-44
2021/11/02 14:32:46;;;;;;;2.33;2.13;;;;;;;10.94;70.77;99294.53;4992813;28;20066;-44
2021/11/02 14:35:12;;;;;;;1.88;1.77;;;;;;;10.93;71.16;99295.47;4988660;28;20038;-44
2021/11/02 14:37:46;;;;;;;2.33;2.00;;;;;;;10.94;71.04;99294.53;4996573;28;20034;-43
2021/11/02 14:40:26;;;;;;;2.30;2.10;;;;;;;10.93;71.05;99293.66;5008015;28;20026;-44
2021/11/02 14:42:55;;;;;;;1.87;1.77;;;;;;;10.93;70.93;99293.66;5007376;28;20087;-44
2021/11/02 14:45:43;;;;;;;1.98;1.88;;;;;;;10.94;70.74;99291.91;5007240;28;20026;-44
2021/11/02 14:48:27;;;;;;;2.08;1.98;;;;;;;10.94;70.82;99299.81;5002506;28;20044;-44
2021/11/02 14:51:05;;;;;;;1.75;1.65;;;;;;;10.93;71.04;99303.38;4992891;28;20030;-44
2021/11/02 14:53:34;;;;;;;2.10;1.90;;;;;;;10.91;71.26;99296.34;4993597;28;20022;-44
2021/11/02 14:56:04;;;;;;;1.80;1.70;;;;;;;10.94;70.98;99299.81;4996676;28;20580;-44
2021/11/02 14:58:38;;;;;;;2.00;1.90;;;;;;;10.94;70.88;99298.03;4991123;28;20062;-44
2021/11/02 15:01:07;;;;;;;1.90;1.80;;;;;;;10.93;70.78;99304.22;5007024;28;20077;-44
2021/11/02 15:03:33;;;;;;;2.25;2.05;;;;;;;10.93;71.14;99300.75;5005730;28;20030;-44
2021/11/02 15:06:11;;;;;;;2.00;1.83;;;;;;;10.93;71.08;99303.38;4989916;28;20600;-43
2021/11/02 15:08:39;;;;;;;2.45;1.90;;;;;;;10.93;70.87;99303.38;5004066;28;20069;-44
2021/11/02 15:11:12;;;;;;;1.90;1.80;;;;;;;10.94;70.84;99307.72;5002046;28;20037;-45
2021/11/02 15:13:49;;;;;;;2.10;2.00;;;;;;;10.93;71.09;99309.50;5007044;28;20040;-44
2021/11/02 15:16:16;;;;;;;2.33;2.13;;;;;;;10.93;71.21;99306.84;5007838;28;20560;-43
2021/11/02 15:18:47;;;;;;;1.75;1.65;;;;;;;10.94;71.04;99305.94;5004105;28;20080;-43
2021/11/02 15:21:30;;;;;;;1.75;1.65;;;;;;;10.94;70.86;99310.38;5005049;28;20093;-44
2021/11/02 15:23:56;;;;;;;2.13;1.92;;;;;;;10.93;70.89;99316.56;5005832;28;20088;-43
2021/11/02 15:26:21;;;;;;;1.83;1.73;;;;;;;10.93;71.01;99311.28;5003672;28;20815;-43
2021/11/02 15:28:51;;;;;;;1.75;1.65;;;;;;;10.93;71.07;99319.22;4999400;28;20544;-44
2021/11/02 15:31:20;;;;;;;2.10;2.00;;;;;;;10.94;71.25;99318.28;5025425;28;20537;-44
2021/11/02 15:33:45;;;;;;;2.50;2.30;;;;;;;10.92;71.00;99313.06;5003233;28;20030;-44
2021/11/02 15:36:20;;;;;;;2.70;1.90;;;;;;;10.95;71.13;99320.00;5002100;28;20446;-44
2021/11/02 15:39:03;;;;;;;1.92;1.83;;;;;;;10.94;71.12;99316.50;5005636;28;20030;-44
2021/11/02 15:41:29;;;;;;;1.95;1.80;;;;;;;10.93;71.24;99316.56;4995995;28;20030;-44
2021/11/02 15:43:58;;;;;;;1.88;1.77;;;;;;;10.94;71.07;99313.84;5000220;28;20033;-43
2021/11/02 15:46:29;;;;;;;2.60;1.92;;;;;;;10.94;71.00;99320.94;4998000;28;20057;-44
2021/11/02 15:48:56;;;;;;;2.17;1.98;;;;;;;10.94;71.09;99320.94;4999410;28;20556;-44
2021/11/02 15:51:21;;;;;;;2.22;2.05;;;;;;;10.94;70.91;99318.28;4993249;28;20034;-44
2021/11/02 15:53:47;;;;;;;1.90;1.80;;;;;;;10.94;71.38;99318.28;4998521;28;20041;-44
2021/11/02 15:56:12;;;;;;;2.20;2.00;;;;;;;10.93;71.19;99314.78;4990969;28;20065;-44
2021/11/02 15:58:38;;;;;;;2.15;1.95;;;;;;;10.93;71.49;99317.41;4996056;28;20038;-44
2021/11/02 16:01:03;;;;;;;2.50;2.13;;;;;;;10.93;71.25;99319.22;4999888;28;20026;-44
2021/11/02 16:03:38;;;;;;;2.22;2.03;;;;;;;10.94;71.10;99316.50;4999655;28;20029;-44
2021/11/02 16:06:05;;;;;;;2.28;2.13;;;;;;;10.93;71.17;99311.28;4997987;28;20037;-45
2021/11/02 16:08:30;;;;;;;1.98;1.73;;;;;;;10.93;71.30;99319.22;5008507;28;20038;-44
2021/11/02 16:11:07;;;;;;;2.17;1.98;;;;;;;10.94;71.17;99320.94;4995582;28;20034;-45
2021/11/02 16:13:33;;;;;;;1.80;1.70;;;;;;;10.94;71.13;99326.19;5001353;28;20037;-44
2021/11/02 16:15:59;;;;;;;2.15;2.05;;;;;;;10.93;71.02;99324.47;5007759;28;20034;-44
2021/11/02 16:18:32;;;;;;;1.80;1.70;;;;;;;10.94;71.29;99320.94;5004149;28;20034;-42
2021/11/02 16:20:59;;;;;;;2.40;2.00;;;;;;;10.93;71.27;99316.56;4995884;28;20029;-44
2021/11/02 16:23:26;;;;;;;1.90;1.80;;;;;;;10.94;71.28;99328.84;5017207;28;20048;-43
2021/11/02 16:26:11;;;;;;;2.00;1.80;;;;;;;10.95;71.35;99322.63;5004518;28;20030;-43
2021/11/02 16:28:36;;;;;;;1.60;1.50;;;;;;;10.94;71.12;99320.94;5002667;28;20040;-43
2021/11/02 16:31:07;;;;;;;2.17;1.98;;;;;;;10.94;71.19;99326.19;5008676;28;20034;-44
2021/11/02 16:33:39;;;;;;;3.87;2.10;;;;;;;10.93;71.49;99325.31;5009602;28;20030;-43
2021/11/02 16:36:21;;;;;;;2.00;1.90;;;;;;;10.94;71.43;99331.47;5010010;28;20284;-43
2021/11/02 16:38:49;;;;;;;2.20;1.98;;;;;;;10.95;71.11;99333.19;5011192;28;20072;-44
2021/11/02 16:41:39;;;;;;;2.47;2.10;;;;;;;10.93;71.27;99327.97;5008991;28;20030;-43
2021/11/02 16:44:07;;;;;;;2.33;2.13;;;;;;;10.92;71.19;99334.16;5000988;28;21251;-45
2021/11/02 16:46:41;;;;;;;2.40;2.20;;;;;;;10.94;71.11;99336.75;5004677;28;20106;-43